Latest  Newer  Older  Last 2 hours slideshow  Last 24 hours slideshow  Refresh every 5 minutes 
Current image  Latest image  Rain/snow radar  Cloud coverage sat images 

All time is UTC (add 2 hours to UTC in wintertime, 3 hours to UTC in DST for Latvia local time)

2020/11/29 07:50 EVRA 290750Z 06005KT 9999 FEW012 01/M00 Q1025 R36/190095 NOSIG
2020/11/29 07:50 EVLA 290750Z AUTO 09006KT 9999 NCD 00/M02 Q1025
2020/11/29 07:50 EVVA 290750Z AUTO 11002KT 9999 OVC046 02/02 Q1026
2020/11/29 07:50 EYKA 290750Z 03006KT 350V070 9999 BKN011 01/M01 Q1022 R08/290095
2020/11/29 07:50 EYPA 290750Z 04006KT CAVOK M00/M01 Q1025
2020/11/29 07:50 EYSA 290750Z 07007KT 030V090 9999 OVC005 M00/M01 Q1024 R32R/29//95 R32L/29//95 YLO NOSIG
2020/11/29 07:50 EYVI 290750Z 02007KT 9999 BKN009 BKN053 M00/M01 Q1020 R01/2///95 NOSIG

2020/11/29 07:50 EEKE 290750Z AUTO 05008KT 9999NDV SCT026 BKN030 OVC051 02/01 Q1027

2020/11/29 07:50 EETN 290750Z 08007KT 9999 OVC009 M00/M02 Q1029 R08/31//95 NOSIG
2020/11/29 07:50 EETU 290750Z AUTO 04004KT 010V070 9999 BKN008/// OVC010/// 01/M01 Q1027
   RIGA AIRPORT     EVRA               56 55N  023 58E   10   X     T          6 LV
   LIEPAJA INTL     EVLA        26406  56 31N  021 06E    4   X                8 LV
   VENTPILS         EVVA               57 21N  021 33E    6   X                8 LV
   KAUNAS           EYKA               54 54N  023 55E   77   X     T          6 LT
   PALANGA INTL     EYPA               55 55N  021 03E   10   X                6 LT
   SIAULIAI INTL    EYSA               55 54N  023 24E  135   X     T          6 LT
   VILNIUS INTL     EYVI        26730  54 38N  025 17E  197   X     T          6 LT
   KARDLA           EEKA        26116  58 59N  022 50E    4   X                8 EE
   KURESSAARE       EEKE               58 14N  022 31E    4   X                8 EE
   PARNU            EEPU               58 25N  024 28E   14   X                8 EE
   TALLINN          EETN        26038  59 24N  024 49E   40   X     T          8 EE
   TARTU            EETU               58 19N  026 41E   67   X                8 EE